createdAt,value
2023-01-11T00:02:20.839Z,0.20
2023-01-11T00:05:23.480Z,0.20
2023-01-11T00:08:26.657Z,0.20
2023-01-11T00:11:30.342Z,0.10
2023-01-11T00:14:32.611Z,0.20
2023-01-11T00:17:34.809Z,0.20
2023-01-11T00:20:39.054Z,0.65
2023-01-11T00:23:41.333Z,0.10
2023-01-11T00:26:44.982Z,0.10
2023-01-11T00:29:47.837Z,0.10
2023-01-11T00:32:50.088Z,0.20
2023-01-11T00:35:52.798Z,0.30
2023-01-11T00:38:55.466Z,0.30
2023-01-11T00:42:18.014Z,0.03
2023-01-11T00:45:39.261Z,0.10
2023-01-11T00:48:41.460Z,0.07
2023-01-11T00:51:44.598Z,0.00
2023-01-11T00:54:46.925Z,0.00
2023-01-11T00:57:50.690Z,0.60
2023-01-11T01:00:52.931Z,0.10
2023-01-11T01:03:55.125Z,0.10
2023-01-11T01:06:57.465Z,0.00
2023-01-11T01:09:59.758Z,0.05
2023-01-11T01:13:21.822Z,0.20
2023-01-11T01:19:29.289Z,0.10
2023-01-11T01:22:31.938Z,0.10
2023-01-11T01:25:36.577Z,0.00
2023-01-11T01:28:40.152Z,0.10
2023-01-11T01:31:42.576Z,0.00
2023-01-11T01:34:44.721Z,0.00
2023-01-11T01:37:47.551Z,0.00
2023-01-11T01:40:49.785Z,0.30
2023-01-11T01:43:55.204Z,0.10
2023-01-11T01:46:57.525Z,0.13
2023-01-11T01:50:03.638Z,0.10
2023-01-11T01:53:10.357Z,0.10
2023-01-11T01:56:16.079Z,0.10
2023-01-11T01:59:21.787Z,0.10
2023-01-11T02:02:25.523Z,0.10
2023-01-11T02:05:28.274Z,0.20
2023-01-11T02:08:35.850Z,0.10
2023-01-11T02:11:43.191Z,0.10
2023-01-11T02:14:47.370Z,0.22
2023-01-11T02:17:50.046Z,0.22
2023-01-11T02:21:04.701Z,0.20
2023-01-11T02:24:23.431Z,0.20
2023-01-11T02:27:33.816Z,0.38
2023-01-11T02:30:44.135Z,0.10
2023-01-11T02:33:54.748Z,0.10
2023-01-11T02:37:06.094Z,0.10
2023-01-11T02:40:14.379Z,0.10
2023-01-11T02:43:40.415Z,0.20
2023-01-11T02:46:46.683Z,0.10
2023-01-11T02:49:54.168Z,0.10
2023-01-11T02:52:58.950Z,0.10
2023-01-11T02:56:04.410Z,0.10
2023-01-11T02:59:09.385Z,0.10
2023-01-11T03:02:16.809Z,0.13
2023-01-11T03:05:19.126Z,0.10
2023-01-11T03:08:51.236Z,0.20
2023-01-11T03:12:24.749Z,0.10
2023-01-11T03:15:43.177Z,0.20
2023-01-11T03:18:52.574Z,0.10
2023-01-11T03:22:01.467Z,0.20
2023-01-11T03:25:11.955Z,0.38
2023-01-11T03:28:18.486Z,0.20
2023-01-11T03:31:22.268Z,0.32
2023-01-11T03:34:32.723Z,0.20
2023-01-11T03:37:37.956Z,0.20
2023-01-11T03:40:41.376Z,0.20
2023-01-11T03:43:45.149Z,0.57
2023-01-11T03:46:52.719Z,0.10
2023-01-11T03:50:01.464Z,0.20
2023-01-11T03:53:06.122Z,0.20
2023-01-11T03:56:10.658Z,0.20
2023-01-11T03:59:13.124Z,0.20
2023-01-11T04:02:16.471Z,0.20
2023-01-11T04:05:20.242Z,0.10
2023-01-11T04:08:22.438Z,0.20
2023-01-11T04:11:24.588Z,0.20
2023-01-11T04:14:26.803Z,0.13
2023-01-11T04:17:29.181Z,0.20
2023-01-11T04:20:33.414Z,0.15
2023-01-11T04:23:35.815Z,0.15
2023-01-11T04:26:40.944Z,0.10
2023-01-11T04:29:43.145Z,0.10
2023-01-11T04:32:45.369Z,0.20
2023-01-11T04:35:49.972Z,0.20
2023-01-11T04:38:52.194Z,0.20
2023-01-11T04:42:13.525Z,0.22
2023-01-11T04:45:15.906Z,0.20
2023-01-11T04:48:18.402Z,0.03
2023-01-11T04:51:22.329Z,0.10
2023-01-11T04:54:24.604Z,0.00
2023-01-11T04:57:27.010Z,0.00
2023-01-11T05:00:29.217Z,0.00
2023-01-11T05:03:32.365Z,0.00
2023-01-11T05:06:35.984Z,0.10
2023-01-11T05:09:48.103Z,0.10
2023-01-11T05:12:53.815Z,0.38
2023-01-11T05:15:56.254Z,0.08
2023-01-11T05:19:00.138Z,0.10
2023-01-11T05:22:03.723Z,0.03
2023-01-11T05:25:07.197Z,0.10
2023-01-11T05:28:09.414Z,0.00
2023-01-11T05:31:11.786Z,0.20
2023-01-11T05:34:15.583Z,0.00
2023-01-11T05:37:19.308Z,0.10
2023-01-11T05:40:21.767Z,0.10
2023-01-11T05:43:30.012Z,0.17
2023-01-11T05:46:38.549Z,0.20
2023-01-11T05:49:46.989Z,0.10
2023-01-11T05:52:50.806Z,0.10
2023-01-11T05:55:53.623Z,0.20
2023-01-11T05:58:59.579Z,0.10
2023-01-11T06:02:12.161Z,0.10
2023-01-11T06:05:18.620Z,0.20
2023-01-11T06:08:24.668Z,0.20
2023-01-11T06:11:33.229Z,0.10
2023-01-11T06:14:38.150Z,0.40
2023-01-11T06:17:48.650Z,0.20
2023-01-11T06:21:01.332Z,0.30
2023-01-11T06:24:06.800Z,0.22
2023-01-11T06:27:18.080Z,0.30
2023-01-11T06:30:23.320Z,0.40
2023-01-11T06:33:27.961Z,0.50
2023-01-11T06:36:30.804Z,0.70
2023-01-11T06:39:38.071Z,0.50
2023-01-11T06:42:40.539Z,0.70
2023-01-11T06:45:46.611Z,0.50
2023-01-11T06:48:49.159Z,0.77
2023-01-11T06:51:52.172Z,1.30
2023-01-11T06:54:58.119Z,1.52
2023-01-11T06:58:06.370Z,1.02
2023-01-11T07:01:11.893Z,1.38
2023-01-11T07:04:14.763Z,1.63
2023-01-11T07:07:17.296Z,1.13
2023-01-11T07:10:21.277Z,1.20
2023-01-11T07:13:23.645Z,0.80
2023-01-11T07:16:28.411Z,1.70
2023-01-11T07:19:30.674Z,1.10
2023-01-11T07:22:34.262Z,0.70
2023-01-11T07:25:38.132Z,0.90
2023-01-11T07:28:40.356Z,0.60
2023-01-11T07:31:42.740Z,0.80
2023-01-11T07:34:45.319Z,1.38
2023-01-11T07:37:47.657Z,3.80
2023-01-11T07:40:51.507Z,0.90
2023-01-11T07:43:56.589Z,0.70
2023-01-11T07:46:58.842Z,0.50
2023-01-11T07:50:01.169Z,0.52
2023-01-11T07:53:03.682Z,1.15
2023-01-11T07:56:07.752Z,0.85
2023-01-11T07:59:10.390Z,0.90
2023-01-11T08:02:12.670Z,0.73
2023-01-11T08:05:14.985Z,0.63
2023-01-11T08:08:17.291Z,0.60
2023-01-11T08:11:39.738Z,0.47
2023-01-11T08:14:42.072Z,0.70
2023-01-11T08:17:44.352Z,0.70
2023-01-11T08:20:47.535Z,1.02
2023-01-11T08:23:49.855Z,0.60
2023-01-11T08:26:53.581Z,1.75
2023-01-11T08:29:56.016Z,0.47
2023-01-11T08:33:00.676Z,0.60
2023-01-11T08:36:04.895Z,0.47
2023-01-11T08:39:07.348Z,1.27
2023-01-11T08:42:11.108Z,0.70
2023-01-11T08:45:13.399Z,0.60
2023-01-11T08:48:16.091Z,0.70
2023-01-11T08:51:18.446Z,0.70
2023-01-11T08:54:20.876Z,0.65
2023-01-11T08:57:24.537Z,1.02
2023-01-11T09:00:27.345Z,0.65
2023-01-11T09:03:29.738Z,0.50
2023-01-11T09:06:32.275Z,0.90
2023-01-11T09:09:34.547Z,1.35
2023-01-11T09:12:38.288Z,0.70
2023-01-11T09:15:40.693Z,1.75
2023-01-11T09:18:43.080Z,1.10
2023-01-11T09:21:48.070Z,1.02
2023-01-11T09:24:50.388Z,0.88
2023-01-11T09:27:54.190Z,0.77
2023-01-11T09:30:56.477Z,0.80
2023-01-11T09:33:59.690Z,1.42
2023-01-11T09:37:03.959Z,1.23
2023-01-11T09:40:07.537Z,1.38
2023-01-11T09:43:11.992Z,1.52
2023-01-11T09:46:15.066Z,2.05
2023-01-11T09:49:20.801Z,1.65
2023-01-11T09:52:28.736Z,1.80
2023-01-11T09:55:33.982Z,2.00
2023-01-11T09:58:49.856Z,2.50
2023-01-11T10:01:57.413Z,2.65
2023-01-11T10:05:19.686Z,2.85
2023-01-11T10:18:30.854Z,3.53
2023-01-11T10:19:33.460Z,2.22
2023-01-11T10:22:39.585Z,3.33
2023-01-11T10:25:50.276Z,2.17
2023-01-11T10:29:03.728Z,2.78
2023-01-11T10:32:32.234Z,2.50
2023-01-11T10:35:59.613Z,2.75
2023-01-11T10:39:14.050Z,2.72
2023-01-11T10:42:19.929Z,3.15
2023-01-11T10:45:25.449Z,2.70
2023-01-11T10:48:33.255Z,3.03
2023-01-11T10:51:38.704Z,3.10
2023-01-11T10:54:46.897Z,4.63
2023-01-11T10:58:03.422Z,3.05
2023-01-11T11:01:17.131Z,2.80
2023-01-11T11:04:52.773Z,2.42
2023-01-11T11:07:58.764Z,3.88
2023-01-11T11:11:03.264Z,2.47
2023-01-11T11:14:12.635Z,2.25
2023-01-11T11:17:23.310Z,2.85
2023-01-11T11:20:29.941Z,2.33
2023-01-11T11:23:32.747Z,3.30
2023-01-11T11:26:38.297Z,1.70
2023-01-11T11:29:42.173Z,2.22
2023-01-11T11:32:51.722Z,1.60
2023-01-11T11:36:01.295Z,2.28
2023-01-11T11:39:10.799Z,2.25
2023-01-11T11:42:16.674Z,2.25
2023-01-11T11:45:19.156Z,2.42
2023-01-11T11:48:22.542Z,3.38
2023-01-11T11:51:27.069Z,3.72
2023-01-11T11:54:31.099Z,5.43
2023-01-11T11:57:38.568Z,1.73
2023-01-11T12:00:45.525Z,1.85
2023-01-11T12:03:48.855Z,3.35
2023-01-11T12:07:06.016Z,1.80
2023-01-11T12:10:12.435Z,2.05
2023-01-11T12:13:27.496Z,1.20
2023-01-11T12:16:32.064Z,1.83
2023-01-11T12:19:42.115Z,1.10
2023-01-11T12:22:45.849Z,1.48
2023-01-11T12:26:15.877Z,1.58
2023-01-11T12:29:37.410Z,1.48
2023-01-11T12:32:53.617Z,1.50
2023-01-11T12:36:01.267Z,1.35
2023-01-11T12:39:09.927Z,2.45
2023-01-11T12:42:36.799Z,2.97
2023-01-11T12:45:44.183Z,1.33
2023-01-11T12:48:57.420Z,2.28
2023-01-11T12:52:20.116Z,2.55
2023-01-11T12:55:34.666Z,2.03
2023-01-11T12:58:40.996Z,2.40
2023-01-11T13:01:50.686Z,3.05
2023-01-11T13:14:31.512Z,2.15
2023-01-11T13:17:38.462Z,1.80
2023-01-11T13:20:59.996Z,1.70
2023-01-11T13:24:08.855Z,1.92
2023-01-11T13:27:15.438Z,1.30
2023-01-11T13:30:20.197Z,3.60
2023-01-11T13:33:24.071Z,1.60
2023-01-11T13:36:28.282Z,1.15
2023-01-11T13:39:37.391Z,1.50
2023-01-11T13:42:43.553Z,1.90
2023-01-11T13:45:51.880Z,1.50
2023-01-11T13:48:57.310Z,1.60
2023-01-11T13:52:00.706Z,1.50
2023-01-11T13:55:11.231Z,2.72
2023-01-11T13:58:19.981Z,1.65
2023-01-11T14:01:32.242Z,1.70
2023-01-11T14:04:43.298Z,1.92
2023-01-11T14:08:00.614Z,1.10
2023-01-11T14:11:09.278Z,1.05
2023-01-11T14:14:22.316Z,1.38
2023-01-11T14:17:38.370Z,1.83
2023-01-11T14:20:46.641Z,1.63
2023-01-11T14:23:50.571Z,2.85
2023-01-11T14:27:16.143Z,1.98
2023-01-11T14:30:40.930Z,2.25
2023-01-11T14:34:03.548Z,2.58
2023-01-11T14:37:23.623Z,1.88
2023-01-11T14:40:36.862Z,1.73
2023-01-11T14:43:53.178Z,1.77
2023-01-11T14:47:08.804Z,3.03
2023-01-11T14:50:20.502Z,2.03
2023-01-11T14:53:25.663Z,2.30
2023-01-11T14:56:36.528Z,2.28
2023-01-11T14:59:40.247Z,3.35
2023-01-11T15:02:42.494Z,2.03
2023-01-11T15:05:47.346Z,2.85
2023-01-11T15:08:52.542Z,2.38
2023-01-11T15:11:54.881Z,2.63
2023-01-11T15:15:03.418Z,2.55
2023-01-11T15:18:18.230Z,2.03
2023-01-11T15:21:24.374Z,3.67
2023-01-11T15:24:29.174Z,1.60
2023-01-11T15:27:33.651Z,2.38
2023-01-11T15:30:38.356Z,2.80
2023-01-11T15:33:48.243Z,2.10
2023-01-11T15:37:09.382Z,2.97
2023-01-11T15:40:18.135Z,1.87
2023-01-11T15:43:50.049Z,2.08
2023-01-11T15:47:24.247Z,1.88
2023-01-11T15:51:05.543Z,2.88
2023-01-11T15:54:31.098Z,1.85
2023-01-11T15:58:09.823Z,1.52
2023-01-11T16:01:21.705Z,2.92
2023-01-11T16:07:37.125Z,3.00
2023-01-11T16:10:50.592Z,2.58
2023-01-11T16:14:14.223Z,2.45
2023-01-11T16:17:20.853Z,2.90
2023-01-11T16:20:24.979Z,2.10
2023-01-11T16:23:27.969Z,2.38
2023-01-11T16:26:32.103Z,1.42
2023-01-11T16:29:35.548Z,1.45
2023-01-11T16:32:37.877Z,1.88
2023-01-11T16:35:40.208Z,1.95
2023-01-11T16:38:47.199Z,1.60
2023-01-11T16:41:55.916Z,2.60
2023-01-11T16:45:00.068Z,2.08
2023-01-11T16:48:05.167Z,2.28
2023-01-11T16:51:10.395Z,3.70
2023-01-11T16:54:15.892Z,2.53
2023-01-11T16:57:20.188Z,3.00
2023-01-11T17:00:27.443Z,2.13
2023-01-11T17:03:31.451Z,3.60
2023-01-11T17:06:34.651Z,3.00
2023-01-11T17:09:36.942Z,1.88
2023-01-11T17:12:42.825Z,1.92
2023-01-11T17:15:50.969Z,2.40
2023-01-11T17:18:54.549Z,2.45
2023-01-11T17:22:02.390Z,1.88
2023-01-11T17:25:06.544Z,2.65
2023-01-11T17:28:17.178Z,1.83
2023-01-11T17:31:22.535Z,1.50
2023-01-11T17:34:27.895Z,1.10
2023-01-11T17:37:30.267Z,1.40
2023-01-11T17:40:33.874Z,0.95
2023-01-11T17:43:55.911Z,1.10
2023-01-11T17:46:58.373Z,1.08
2023-01-11T17:50:03.446Z,0.95
2023-01-11T17:53:07.232Z,1.55
2023-01-11T17:56:39.391Z,1.58
2023-01-11T18:02:45.774Z,1.88
2023-01-11T18:05:48.303Z,4.15
2023-01-11T18:08:52.498Z,3.00
2023-01-11T18:12:07.014Z,1.02
2023-01-11T18:15:19.924Z,0.90
2023-01-11T18:18:42.253Z,2.97
2023-01-11T18:21:52.561Z,2.38
2023-01-11T18:24:56.343Z,2.88
2023-01-11T18:28:21.191Z,2.53
2023-01-11T18:31:24.848Z,6.65
2023-01-11T18:34:27.290Z,5.82
2023-01-11T18:37:29.635Z,4.38
2023-01-11T18:40:33.358Z,2.20
2023-01-11T18:43:37.039Z,4.00
2023-01-11T18:46:40.699Z,4.63
2023-01-11T18:49:43.119Z,2.97
2023-01-11T18:52:45.441Z,2.95
2023-01-11T18:55:48.090Z,2.75
2023-01-11T18:58:50.568Z,2.22
2023-01-11T19:02:11.730Z,3.65
2023-01-11T19:05:18.851Z,2.65
2023-01-11T19:08:21.582Z,2.38
2023-01-11T19:11:26.996Z,1.55
2023-01-11T19:14:29.370Z,2.20
2023-01-11T19:17:33.162Z,1.70
2023-01-11T19:20:36.813Z,3.20
2023-01-11T19:23:39.131Z,2.83
2023-01-11T19:26:42.037Z,1.75
2023-01-11T19:29:44.369Z,3.60
2023-01-11T19:32:51.822Z,4.05
2023-01-11T19:35:55.409Z,3.15
2023-01-11T19:38:57.964Z,6.00
2023-01-11T19:42:02.500Z,4.20
2023-01-11T19:45:05.529Z,3.35
2023-01-11T19:48:09.148Z,2.88
2023-01-11T19:51:12.556Z,2.95
2023-01-11T19:54:16.107Z,3.10
2023-01-11T19:57:20.467Z,3.63
2023-01-11T20:00:23.109Z,2.05
2023-01-11T20:03:28.627Z,2.67
2023-01-11T20:06:31.138Z,3.40
2023-01-11T20:09:33.681Z,2.30
2023-01-11T20:12:35.992Z,3.17
2023-01-11T20:15:38.908Z,3.95
2023-01-11T20:18:42.926Z,3.22
2023-01-11T20:21:45.301Z,2.20
2023-01-11T20:24:47.840Z,2.42
2023-01-11T20:27:50.338Z,3.75
2023-01-11T20:30:56.202Z,2.88
2023-01-11T20:34:01.537Z,1.98
2023-01-11T20:37:05.932Z,5.28
2023-01-11T20:40:13.609Z,2.17
2023-01-11T20:43:17.524Z,2.33
2023-01-11T20:46:23.211Z,4.45
2023-01-11T20:49:29.262Z,2.03
2023-01-11T20:52:31.595Z,2.40
2023-01-11T20:55:34.110Z,1.70
2023-01-11T20:58:36.732Z,1.58
2023-01-11T21:01:39.562Z,2.22
2023-01-11T21:04:43.471Z,1.70
2023-01-11T21:07:46.815Z,1.83
2023-01-11T21:10:49.183Z,3.05
2023-01-11T21:13:52.611Z,3.00
2023-01-11T21:16:55.257Z,2.97
2023-01-11T21:19:58.966Z,2.08
2023-01-11T21:23:01.581Z,2.50
2023-01-11T21:26:07.249Z,3.65
2023-01-11T21:29:10.600Z,4.30
2023-01-11T21:32:12.929Z,1.77
2023-01-11T21:35:16.779Z,1.98
2023-01-11T21:38:19.147Z,1.52
2023-01-11T21:41:43.403Z,4.70
2023-01-11T21:44:45.684Z,1.63
2023-01-11T21:47:48.050Z,2.00
2023-01-11T21:50:51.705Z,2.72
2023-01-11T21:53:53.988Z,1.80
2023-01-11T21:56:56.587Z,2.22
2023-01-11T21:59:58.868Z,3.45
2023-01-11T22:03:01.276Z,1.63
2023-01-11T22:06:06.017Z,1.70
2023-01-11T22:09:10.035Z,4.15
2023-01-11T22:12:12.470Z,1.23
2023-01-11T22:15:14.927Z,1.10
2023-01-11T22:18:17.226Z,1.48
2023-01-11T22:21:21.523Z,4.55
2023-01-11T22:24:23.922Z,1.95
2023-01-11T22:27:29.106Z,1.92
2023-01-11T22:30:31.362Z,1.17
2023-01-11T22:33:33.695Z,1.40
2023-01-11T22:36:37.340Z,1.88
2023-01-11T22:39:40.842Z,1.77
2023-01-11T22:42:43.078Z,1.00
2023-01-11T22:45:56.266Z,1.52
2023-01-11T22:48:58.946Z,6.15
2023-01-11T22:52:02.628Z,3.20
2023-01-11T22:55:06.470Z,2.00
2023-01-11T22:58:08.800Z,1.20
2023-01-11T23:01:12.016Z,2.35
2023-01-11T23:04:14.584Z,1.35
2023-01-11T23:07:19.607Z,1.55
2023-01-11T23:10:22.264Z,1.60
2023-01-11T23:13:43.314Z,2.20
2023-01-11T23:16:46.825Z,1.63
2023-01-11T23:19:49.696Z,1.27
2023-01-11T23:22:53.298Z,1.80
2023-01-11T23:25:55.590Z,2.15
2023-01-11T23:28:57.918Z,1.13
2023-01-11T23:32:00.251Z,0.90
2023-01-11T23:35:04.784Z,1.23
2023-01-11T23:38:08.457Z,1.83
2023-01-11T23:41:32.093Z,1.10
2023-01-11T23:44:34.811Z,0.93
2023-01-11T23:47:37.108Z,1.55
2023-01-11T23:50:39.365Z,1.75
2023-01-11T23:53:43.066Z,1.15
2023-01-11T23:56:45.371Z,1.05
2023-01-11T23:59:47.757Z,0.90
